createdAt,value
2019-03-26T00:02:47.610Z,60.96
2019-03-26T00:07:51.337Z,61.23
2019-03-26T00:12:54.025Z,61.11
2019-03-26T00:17:56.648Z,60.86
2019-03-26T00:22:59.297Z,60.36
2019-03-26T00:28:01.912Z,60.37
2019-03-26T00:33:04.591Z,60.14
2019-03-26T00:38:07.239Z,59.98
2019-03-26T00:43:09.864Z,60.14
2019-03-26T00:48:12.482Z,60.15
2019-03-26T00:53:15.149Z,59.92
2019-03-26T00:58:19.162Z,60.08
2019-03-26T01:03:21.773Z,60.10
2019-03-26T01:08:24.397Z,60.03
2019-03-26T01:13:27.035Z,60.02
2019-03-26T01:18:29.651Z,59.99
2019-03-26T01:23:33.459Z,59.91
2019-03-26T01:28:36.150Z,60.05
2019-03-26T01:33:39.874Z,60.13
2019-03-26T01:38:43.652Z,59.96
2019-03-26T01:43:46.285Z,59.94
2019-03-26T01:48:48.950Z,59.77
2019-03-26T01:53:53.916Z,59.79
2019-03-26T01:58:57.773Z,59.88
2019-03-26T02:04:00.383Z,59.82
2019-03-26T02:09:04.182Z,59.84
2019-03-26T02:14:06.781Z,60.11
2019-03-26T02:19:09.431Z,60.13
2019-03-26T02:24:14.456Z,60.04
2019-03-26T02:29:17.086Z,60.06
2019-03-26T02:34:19.784Z,60.06
2019-03-26T02:39:22.379Z,59.99
2019-03-26T02:44:24.971Z,59.90
2019-03-26T02:49:27.658Z,59.81
2019-03-26T02:54:30.290Z,59.80
2019-03-26T02:59:32.907Z,59.70
2019-03-26T03:04:35.588Z,59.79
2019-03-26T03:09:38.197Z,60.08
2019-03-26T03:14:43.214Z,60.05
2019-03-26T03:19:45.871Z,59.98
2019-03-26T03:24:48.482Z,60.08
2019-03-26T03:29:51.254Z,60.11
2019-03-26T03:34:54.013Z,60.21
2019-03-26T03:39:56.674Z,60.26
2019-03-26T03:44:59.340Z,60.51
2019-03-26T03:50:02.030Z,60.59
2019-03-26T03:55:05.247Z,60.69
2019-03-26T04:00:29.829Z,60.77
2019-03-26T04:05:32.560Z,60.84
2019-03-26T04:10:35.239Z,61.32
2019-03-26T04:15:37.848Z,61.33
2019-03-26T04:20:41.697Z,61.32
2019-03-26T04:25:44.393Z,61.26
2019-03-26T04:30:47.036Z,61.34
2019-03-26T04:35:49.682Z,61.46
2019-03-26T04:40:52.265Z,61.45
2019-03-26T04:45:54.904Z,61.54
2019-03-26T04:50:57.548Z,61.49
2019-03-26T04:56:01.248Z,61.53
2019-03-26T05:01:03.894Z,61.99
2019-03-26T05:06:06.594Z,61.97
2019-03-26T05:11:09.216Z,61.95
2019-03-26T05:16:11.862Z,62.03
2019-03-26T05:21:14.552Z,62.13
2019-03-26T05:26:18.982Z,62.03
2019-03-26T05:31:21.605Z,61.72
2019-03-26T05:36:24.271Z,61.66
2019-03-26T05:41:26.913Z,61.63
2019-03-26T05:46:29.532Z,61.34
2019-03-26T05:51:32.159Z,61.44
2019-03-26T05:56:34.797Z,61.13
2019-03-26T06:01:37.410Z,61.42
2019-03-26T06:06:40.277Z,61.37
2019-03-26T06:11:42.940Z,60.99
2019-03-26T06:16:45.545Z,60.53
2019-03-26T06:21:48.141Z,60.30
2019-03-26T06:26:50.740Z,60.00
2019-03-26T06:31:53.389Z,59.91
2019-03-26T06:36:56.009Z,59.31
2019-03-26T06:41:58.760Z,59.25
2019-03-26T06:47:01.403Z,58.98
2019-03-26T06:52:04.232Z,58.91
2019-03-26T06:57:06.841Z,58.86
2019-03-26T07:02:10.164Z,58.57
2019-03-26T07:07:13.196Z,58.81
2019-03-26T07:12:15.809Z,58.88
2019-03-26T07:17:18.452Z,58.88
2019-03-26T07:22:21.072Z,58.88
2019-03-26T07:27:23.708Z,58.79
2019-03-26T07:32:26.484Z,58.87
2019-03-26T07:37:29.141Z,58.60
2019-03-26T07:42:31.748Z,58.61
2019-03-26T07:47:34.414Z,58.27
2019-03-26T07:52:37.068Z,58.08
2019-03-26T07:57:39.780Z,57.03
2019-03-26T08:02:46.206Z,56.91
2019-03-26T08:07:58.213Z,56.57
2019-03-26T08:12:53.319Z,56.20
2019-03-26T08:17:56.050Z,55.28
2019-03-26T08:23:00.690Z,54.42
2019-03-26T08:28:05.023Z,54.17
2019-03-26T08:33:08.006Z,53.94
2019-03-26T08:38:13.404Z,53.72
2019-03-26T08:43:16.415Z,53.44
2019-03-26T08:48:18.988Z,53.30
2019-03-26T08:53:23.369Z,52.98
2019-03-26T08:58:27.175Z,52.86
2019-03-26T09:03:29.788Z,52.06
2019-03-26T09:08:32.399Z,51.52
2019-03-26T09:13:37.411Z,51.01
2019-03-26T09:18:40.032Z,50.61
2019-03-26T09:23:43.863Z,49.72
2019-03-26T09:28:48.046Z,48.99
2019-03-26T09:33:50.831Z,48.83
2019-03-26T09:38:53.431Z,48.27
2019-03-26T09:43:56.269Z,48.12
2019-03-26T09:48:58.940Z,47.65
2019-03-26T09:54:01.545Z,47.21
2019-03-26T09:59:04.210Z,47.08
2019-03-26T10:04:08.047Z,46.35
2019-03-26T10:09:13.060Z,45.86
2019-03-26T10:14:15.761Z,45.75
2019-03-26T10:19:18.360Z,45.39
2019-03-26T10:24:21.041Z,45.46
2019-03-26T10:29:30.011Z,45.55
2019-03-26T10:34:28.461Z,44.83
2019-03-26T10:39:31.182Z,44.66
2019-03-26T10:44:33.866Z,44.63
2019-03-26T10:49:37.616Z,44.62
2019-03-26T10:54:40.281Z,44.29
2019-03-26T10:59:44.095Z,44.38
2019-03-26T11:04:46.745Z,44.67
2019-03-26T11:09:49.329Z,45.37
2019-03-26T11:14:52.047Z,45.32
2019-03-26T11:19:54.668Z,45.66
2019-03-26T11:24:57.393Z,45.30
2019-03-26T11:30:00.022Z,45.04
2019-03-26T11:35:04.084Z,44.80
2019-03-26T11:40:07.588Z,44.21
2019-03-26T11:45:10.899Z,44.16
2019-03-26T11:50:14.118Z,44.12
2019-03-26T11:55:16.784Z,44.16
2019-03-26T12:00:24.201Z,43.88
2019-03-26T12:05:27.111Z,43.57
2019-03-26T12:10:32.811Z,43.33
2019-03-26T12:15:35.449Z,43.11
2019-03-26T12:20:37.971Z,43.35
2019-03-26T12:25:40.632Z,43.18
2019-03-26T12:30:43.285Z,43.20
2019-03-26T12:35:45.947Z,43.02
2019-03-26T12:40:49.044Z,43.68
2019-03-26T12:45:51.650Z,43.55
2019-03-26T12:50:54.261Z,43.43
2019-03-26T12:55:56.842Z,43.20
2019-03-26T13:00:59.465Z,42.97
2019-03-26T13:06:02.298Z,43.01
2019-03-26T13:11:05.005Z,43.02
2019-03-26T13:16:07.662Z,42.72
2019-03-26T13:21:10.327Z,43.11
2019-03-26T13:26:13.705Z,43.20
2019-03-26T13:31:16.349Z,42.96
2019-03-26T13:36:19.028Z,43.40
2019-03-26T13:41:21.780Z,43.45
2019-03-26T13:46:24.429Z,43.79
2019-03-26T13:51:27.075Z,43.40
2019-03-26T13:56:29.888Z,43.78
2019-03-26T14:01:32.526Z,42.99
2019-03-26T14:06:35.310Z,43.05
2019-03-26T14:11:37.902Z,42.39
2019-03-26T14:16:40.624Z,42.97
2019-03-26T14:21:43.229Z,42.57
2019-03-26T14:26:45.906Z,42.84
2019-03-26T14:31:48.507Z,42.62
2019-03-26T14:36:51.154Z,42.18
2019-03-26T14:41:53.841Z,42.27
2019-03-26T14:46:56.515Z,42.55
2019-03-26T14:51:59.124Z,42.66
2019-03-26T14:57:01.801Z,42.73
2019-03-26T15:02:04.431Z,42.99
2019-03-26T15:07:07.057Z,42.98
2019-03-26T15:12:09.720Z,43.38
2019-03-26T15:17:12.370Z,43.93
2019-03-26T15:22:14.959Z,44.30
2019-03-26T15:27:17.652Z,44.77
2019-03-26T15:32:20.232Z,45.12
2019-03-26T15:37:22.876Z,45.50
2019-03-26T15:42:25.509Z,46.11
2019-03-26T15:47:28.238Z,47.00
2019-03-26T15:52:30.919Z,47.60
2019-03-26T15:57:33.624Z,47.67
2019-03-26T16:02:36.263Z,48.02
2019-03-26T16:07:38.962Z,48.34
2019-03-26T16:12:41.710Z,49.45
2019-03-26T16:17:44.459Z,49.86
2019-03-26T16:22:47.096Z,49.92
2019-03-26T16:27:50.733Z,50.06
2019-03-26T16:32:53.690Z,49.90
2019-03-26T16:37:56.821Z,50.02
2019-03-26T16:42:59.450Z,50.36
2019-03-26T16:48:02.261Z,50.48
2019-03-26T16:53:04.898Z,50.48
2019-03-26T16:58:10.321Z,51.41
2019-03-26T17:03:13.019Z,52.04
2019-03-26T17:08:15.843Z,53.01
2019-03-26T17:13:18.472Z,53.98
2019-03-26T17:18:23.995Z,54.38
2019-03-26T17:23:27.239Z,54.87
2019-03-26T17:28:29.852Z,55.01
2019-03-26T17:33:32.447Z,55.24
2019-03-26T17:38:35.110Z,55.35
2019-03-26T17:43:40.105Z,55.44
2019-03-26T17:48:44.248Z,55.63
2019-03-26T17:53:46.893Z,55.09
2019-03-26T17:58:49.838Z,54.96
2019-03-26T18:03:52.560Z,54.82
2019-03-26T18:08:59.172Z,54.68
2019-03-26T18:14:01.817Z,54.97
2019-03-26T18:19:04.589Z,54.87
2019-03-26T18:24:08.379Z,54.96
2019-03-26T18:29:11.090Z,55.19
2019-03-26T18:34:13.749Z,55.27
2019-03-26T18:39:16.562Z,55.26
2019-03-26T18:44:22.019Z,55.27
2019-03-26T18:49:24.790Z,55.48
2019-03-26T18:54:27.782Z,55.56
2019-03-26T18:59:33.077Z,55.79
2019-03-26T19:04:35.826Z,56.10
2019-03-26T19:09:40.920Z,56.14
2019-03-26T19:14:43.642Z,56.55
2019-03-26T19:19:46.339Z,56.84
2019-03-26T19:24:48.990Z,56.81
2019-03-26T19:29:58.811Z,56.95
2019-03-26T19:35:01.493Z,57.03
2019-03-26T19:40:05.724Z,57.09
2019-03-26T19:45:09.816Z,57.03
2019-03-26T19:50:13.862Z,57.14
2019-03-26T19:55:16.740Z,57.19
2019-03-26T20:00:19.765Z,57.37
2019-03-26T20:05:22.717Z,57.54
2019-03-26T20:10:25.633Z,57.49
2019-03-26T20:15:28.507Z,57.40
2019-03-26T20:20:31.264Z,57.55
2019-03-26T20:25:33.937Z,57.38
2019-03-26T20:30:37.850Z,57.42
2019-03-26T20:35:40.803Z,57.40
2019-03-26T20:40:43.935Z,57.33
2019-03-26T20:45:46.594Z,57.18
2019-03-26T20:50:49.304Z,57.47
2019-03-26T20:55:54.561Z,57.47
2019-03-26T21:00:57.589Z,57.47
2019-03-26T21:06:00.213Z,57.58
2019-03-26T21:11:04.020Z,57.82
2019-03-26T21:16:06.745Z,57.78
2019-03-26T21:21:09.404Z,57.55
2019-03-26T21:26:12.165Z,57.66
2019-03-26T21:31:14.814Z,57.67
2019-03-26T21:36:17.405Z,57.67
2019-03-26T21:41:20.076Z,57.76
2019-03-26T21:46:22.688Z,57.94
2019-03-26T21:51:25.294Z,57.96
2019-03-26T21:56:28.004Z,58.04
2019-03-26T22:01:31.570Z,57.96
2019-03-26T22:06:34.221Z,58.23
2019-03-26T22:11:49.246Z,58.42
2019-03-26T22:16:41.597Z,58.37
2019-03-26T22:21:44.276Z,58.54
2019-03-26T22:26:46.986Z,58.67
2019-03-26T22:31:49.618Z,58.84
2019-03-26T22:36:52.274Z,59.00
2019-03-26T22:41:55.111Z,59.32
2019-03-26T22:46:57.736Z,59.54
2019-03-26T22:52:00.399Z,59.46
2019-03-26T22:57:06.340Z,59.48
2019-03-26T23:02:08.820Z,59.60
2019-03-26T23:07:11.462Z,59.46
2019-03-26T23:12:14.098Z,59.46
2019-03-26T23:17:16.767Z,59.69
2019-03-26T23:22:19.363Z,59.78
2019-03-26T23:27:21.967Z,60.11
2019-03-26T23:32:24.574Z,60.16
2019-03-26T23:37:27.185Z,60.36
2019-03-26T23:42:29.911Z,60.85
2019-03-26T23:47:33.960Z,61.20
2019-03-26T23:52:36.548Z,61.37
2019-03-26T23:57:42.753Z,61.47
